Time;durP1;ratioP1;P1;durP2;ratioP2;P2;SDS_P1;SDS_P2;PMS_P1;PMS_P2;Temp;Humidity;BMP_temperature;BMP_pressure;BME280_temperature;BME280_humidity;BME280_pressure;Samples;Min_cycle;Max_cycle;Signal;HPM_P1;HPM_P2
2022/06/19 00:00:38;;;;;;;7.57;1.55;;;13.50;99.90;;;;;;4943983;29;20043;-69
2022/06/19 00:03:07;;;;;;;9.60;1.60;;;13.50;99.90;;;;;;4930186;29;20226;-69
2022/06/19 00:05:33;;;;;;;9.43;1.55;;;13.50;99.90;;;;;;4930181;29;20110;-70
2022/06/19 00:08:00;;;;;;;8.77;1.42;;;13.50;99.90;;;;;;4929477;29;20058;-70
2022/06/19 00:10:25;;;;;;;8.50;1.63;;;13.40;99.90;;;;;;4944361;29;20043;-70
2022/06/19 00:12:51;;;;;;;8.65;1.55;;;13.40;99.90;;;;;;4904456;29;20539;-70
2022/06/19 00:15:17;;;;;;;8.55;1.73;;;13.40;99.90;;;;;;4925228;29;20054;-70
2022/06/19 00:17:43;;;;;;;8.48;1.23;;;13.40;99.90;;;;;;4941226;28;20050;-70
2022/06/19 00:20:10;;;;;;;9.98;1.58;;;13.40;99.90;;;;;;4929714;29;20404;-69
2022/06/19 00:22:38;;;;;;;10.23;1.95;;;13.40;99.90;;;;;;4934084;28;20043;-70
2022/06/19 00:25:05;;;;;;;8.07;1.40;;;13.40;99.90;;;;;;4910873;29;20051;-70
2022/06/19 00:27:35;;;;;;;7.40;1.75;;;13.40;99.90;;;;;;4948972;28;20543;-70
2022/06/19 00:30:01;;;;;;;10.43;1.40;;;13.40;99.90;;;;;;4949625;28;20051;-70
2022/06/19 00:32:27;;;;;;;6.60;1.40;;;13.40;99.90;;;;;;4922994;29;20046;-70
2022/06/19 00:34:54;;;;;;;9.00;1.60;;;13.40;99.90;;;;;;4925265;29;20397;-70
2022/06/19 00:37:20;;;;;;;11.07;2.30;;;13.40;99.90;;;;;;4943681;29;20039;-70
2022/06/19 00:39:45;;;;;;;11.27;1.85;;;13.40;99.90;;;;;;4929478;29;20066;-70
2022/06/19 00:42:14;;;;;;;9.13;1.58;;;13.40;99.90;;;;;;4935519;29;20150;-70
2022/06/19 00:44:41;;;;;;;13.07;2.00;;;13.40;99.90;;;;;;4940699;29;20447;-70
2022/06/19 00:47:19;;;;;;;11.88;1.77;;;13.50;99.90;;;;;;4942004;28;20479;-70
2022/06/19 00:50:21;;;;;;;12.73;2.13;;;13.50;99.90;;;;;;4923919;29;20046;-70
2022/06/19 00:52:46;;;;;;;;;;;13.60;99.90;;;;;;4930710;29;20051;-70
2022/06/19 00:55:19;;;;;;;15.15;2.10;;;13.60;99.90;;;;;;4941015;28;20393;-71
2022/06/19 00:57:50;;;;;;;13.48;2.00;;;13.60;99.90;;;;;;4927062;29;20402;-71
2022/06/19 01:00:26;;;;;;;16.80;2.73;;;13.60;99.90;;;;;;4914618;29;20050;-70
2022/06/19 01:03:11;;;;;;;12.88;2.03;;;13.70;99.90;;;;;;4930593;29;20511;-70
2022/06/19 01:05:39;;;;;;;10.63;2.17;;;13.70;99.90;;;;;;4945415;28;20086;-70
2022/06/19 01:08:05;;;;;;;16.70;2.53;;;13.80;99.90;;;;;;4926631;29;20059;-70
2022/06/19 01:10:34;;;;;;;16.00;2.50;;;13.80;99.90;;;;;;4946617;29;20064;-70
2022/06/19 01:12:59;;;;;;;11.65;2.20;;;13.80;99.90;;;;;;4929450;29;20437;-71
2022/06/19 01:15:26;;;;;;;15.00;2.20;;;13.90;99.90;;;;;;4935967;29;20043;-70
2022/06/19 01:17:56;;;;;;;13.35;2.22;;;13.90;99.90;;;;;;4945813;29;20546;-70
2022/06/19 01:20:23;;;;;;;16.55;1.98;;;13.90;99.90;;;;;;4944557;28;20043;-70
2022/06/19 01:22:56;;;;;;;13.02;2.88;;;13.90;99.90;;;;;;4941531;29;20038;-70
2022/06/19 01:25:34;;;;;;;14.93;2.13;;;13.90;99.90;;;;;;4938934;29;20117;-70
2022/06/19 01:30:53;;;;;;;17.38;2.88;;;13.90;99.90;;;;;;4945910;28;20051;-70
2022/06/19 01:33:23;;;;;;;15.07;2.85;;;14.00;99.90;;;;;;4929923;29;20098;-70
2022/06/19 01:35:52;;;;;;;21.40;2.90;;;14.00;99.90;;;;;;4944513;28;20095;-71
2022/06/19 01:38:20;;;;;;;17.35;2.65;;;14.00;99.90;;;;;;4939672;28;20487;-71
2022/06/19 01:40:54;;;;;;;15.52;3.60;;;14.00;99.90;;;;;;4924354;29;20094;-71
2022/06/19 01:43:20;;;;;;;14.13;2.72;;;14.10;99.90;;;;;;4946053;28;20066;-73
2022/06/19 01:45:52;;;;;;;20.25;3.00;;;14.00;99.90;;;;;;4942428;29;20078;-73
2022/06/19 01:48:23;;;;;;;20.98;3.22;;;13.90;99.90;;;;;;4928146;29;20098;-75
2022/06/19 01:50:50;;;;;;;;;;;13.90;99.90;;;;;;4938857;29;20044;-76
2022/06/19 01:53:29;;;;;;;18.17;2.83;;;13.80;99.90;;;;;;4961308;29;19910;-76
2022/06/19 01:55:54;;;;;;;22.52;3.13;;;13.70;99.90;;;;;;4964503;29;20038;-76
2022/06/19 01:58:24;;;;;;;21.83;3.22;;;13.70;99.90;;;;;;4955942;28;20047;-76
2022/06/19 02:00:50;;;;;;;19.77;3.70;;;13.60;99.90;;;;;;4927731;29;20039;-76
2022/06/19 02:03:35;;;;;;;20.65;3.38;;;13.60;99.90;;;;;;4943363;28;20448;-76
2022/06/19 02:06:01;;;;;;;18.35;2.95;;;13.80;99.90;;;;;;4935095;29;20051;-75
2022/06/19 02:08:28;;;;;;;12.07;2.80;;;13.40;99.90;;;;;;4930453;29;20047;-75
2022/06/19 02:10:55;;;;;;;20.80;3.38;;;13.40;99.90;;;;;;4930775;29;20067;-75
2022/06/19 02:13:23;;;;;;;17.70;2.90;;;13.40;99.90;;;;;;4928679;29;20409;-75
2022/06/19 02:15:51;;;;;;;18.45;2.90;;;13.40;99.90;;;;;;4915777;29;20046;-75
2022/06/19 02:18:31;;;;;;;21.65;2.95;;;13.40;99.90;;;;;;4941760;28;20154;-75
2022/06/19 02:20:57;;;;;;;19.38;2.83;;;13.40;99.90;;;;;;4944002;28;20039;-76
2022/06/19 02:23:34;;;;;;;16.88;2.85;;;13.40;99.90;;;;;;4910403;29;20407;-75
2022/06/19 02:26:00;;;;;;;20.65;2.80;;;13.30;99.90;;;;;;4946666;28;20051;-76
2022/06/19 02:28:27;;;;;;;17.88;3.97;;;13.30;99.90;;;;;;4941334;29;20093;-75
2022/06/19 02:30:54;;;;;;;15.02;2.22;;;13.40;99.90;;;;;;4940565;29;20052;-76
2022/06/19 02:33:24;;;;;;;18.38;2.85;;;13.40;99.90;;;;;;4920867;29;20057;-75
2022/06/19 02:35:50;;;;;;;27.05;3.35;;;13.30;99.90;;;;;;4941840;28;20047;-76
2022/06/19 02:38:20;;;;;;;20.95;3.22;;;13.40;99.90;;;;;;4943455;29;20043;-77
2022/06/19 02:41:12;;;;;;;14.05;2.17;;;13.40;99.90;;;;;;4941128;29;20130;-77
2022/06/19 02:43:37;;;;;;;17.20;3.03;;;13.30;99.90;;;;;;4930932;29;20138;-77
2022/06/19 02:46:07;;;;;;;21.75;2.85;;;13.40;99.90;;;;;;4915885;28;20078;-76
2022/06/19 02:48:33;;;;;;;10.68;1.80;;;13.40;99.90;;;;;;4940338;29;20046;-74
2022/06/19 02:51:02;;;;;;;13.90;2.58;;;13.40;99.90;;;;;;4933392;29;20080;-74
2022/06/19 02:53:28;;;;;;;19.48;3.42;;;13.40;99.90;;;;;;4943396;28;20459;-75
2022/06/19 02:55:54;;;;;;;17.38;2.80;;;13.40;99.90;;;;;;4919175;29;20043;-74
2022/06/19 02:58:21;;;;;;;16.48;2.40;;;13.30;99.90;;;;;;4930051;29;20044;-76
2022/06/19 03:00:48;;;;;;;19.67;2.83;;;13.40;99.90;;;;;;4943064;29;20094;-75
2022/06/19 03:03:35;;;;;;;19.50;2.80;;;13.40;99.90;;;;;;4917566;29;20106;-74
2022/06/19 03:06:01;;;;;;;18.67;2.40;;;13.30;99.90;;;;;;4927944;29;20051;-74
2022/06/19 03:08:27;;;;;;;18.33;3.28;;;13.40;99.90;;;;;;4949360;28;20072;-73
2022/06/19 03:10:52;;;;;;;16.45;2.10;;;13.30;99.90;;;;;;4930401;29;20548;-74
2022/06/19 03:13:19;;;;;;;17.90;2.60;;;13.30;99.90;;;;;;4912620;29;20066;-73
2022/06/19 03:15:45;;;;;;;15.15;2.47;;;13.30;99.90;;;;;;4925912;29;20054;-73
2022/06/19 03:18:11;;;;;;;15.40;2.15;;;13.30;99.90;;;;;;4944193;29;20047;-74
2022/06/19 03:20:36;;;;;;;14.98;2.15;;;13.20;99.90;;;;;;4931266;29;20405;-74
2022/06/19 03:23:02;;;;;;;16.83;2.63;;;13.30;99.90;;;;;;4925162;29;20056;-73
2022/06/19 03:25:28;;;;;;;14.30;1.63;;;13.20;99.90;;;;;;4941756;28;20509;-73
2022/06/19 03:27:54;;;;;;;12.35;2.08;;;13.20;99.90;;;;;;4930666;29;20119;-74
2022/06/19 03:30:21;;;;;;;15.32;2.60;;;13.10;99.90;;;;;;4925997;29;20048;-74
2022/06/19 03:32:47;;;;;;;20.13;3.45;;;13.10;99.90;;;;;;4946843;28;20046;-74
2022/06/19 03:35:13;;;;;;;17.55;2.80;;;13.10;99.90;;;;;;4931471;29;20043;-77
2022/06/19 03:37:40;;;;;;;21.10;3.33;;;13.10;99.90;;;;;;4932796;29;20401;-76
2022/06/19 03:40:07;;;;;;;20.73;3.58;;;13.10;99.90;;;;;;4927587;29;20062;-73
2022/06/19 03:42:32;;;;;;;19.80;2.85;;;13.10;99.90;;;;;;4941602;29;20059;-74
2022/06/19 03:44:58;;;;;;;18.55;4.03;;;13.00;99.90;;;;;;4940368;28;20489;-74
2022/06/19 03:47:26;;;;;;;21.08;3.72;;;12.90;99.90;;;;;;4924617;29;20047;-74
2022/06/19 03:49:52;;;;;;;21.23;3.55;;;13.00;99.90;;;;;;4940037;29;20051;-74
2022/06/19 03:52:17;;;;;;;22.40;2.92;;;12.80;99.90;;;;;;4925537;29;20051;-74
2022/06/19 03:54:44;;;;;;;15.27;2.60;;;12.70;99.90;;;;;;4950955;28;20058;-74
2022/06/19 03:57:12;;;;;;;19.40;2.60;;;12.70;99.90;;;;;;4918799;29;20048;-74
2022/06/19 03:59:38;;;;;;;16.63;3.08;;;12.70;99.90;;;;;;4924502;29;20492;-74
2022/06/19 04:02:04;;;;;;;17.00;2.97;;;12.70;99.90;;;;;;4929639;29;20047;-74
2022/06/19 04:04:30;;;;;;;18.27;2.42;;;12.70;99.90;;;;;;4942243;29;20115;-74
2022/06/19 04:06:56;;;;;;;20.23;3.15;;;12.70;99.90;;;;;;4940343;29;20556;-74
2022/06/19 04:09:22;;;;;;;16.85;2.55;;;12.70;99.90;;;;;;4942863;28;20159;-73
2022/06/19 04:11:48;;;;;;;14.60;2.58;;;12.60;99.90;;;;;;4926414;29;20051;-74
2022/06/19 04:14:15;;;;;;;20.83;3.00;;;12.60;99.90;;;;;;4942030;28;20567;-73
2022/06/19 04:16:42;;;;;;;15.27;2.60;;;12.60;99.90;;;;;;4928777;29;20061;-73
2022/06/19 04:19:08;;;;;;;15.88;2.45;;;12.60;99.90;;;;;;4930164;29;20074;-73
2022/06/19 04:21:43;;;;;;;21.83;2.85;;;12.50;99.90;;;;;;4926063;29;20050;-74
2022/06/19 04:24:11;;;;;;;19.30;3.40;;;12.50;99.90;;;;;;4942756;29;20055;-74
2022/06/19 04:26:38;;;;;;;20.50;3.67;;;12.40;99.90;;;;;;4950312;29;20121;-74
2022/06/19 04:29:05;;;;;;;17.55;3.00;;;12.30;99.90;;;;;;4933077;28;20460;-74
2022/06/19 04:31:32;;;;;;;15.45;3.22;;;12.30;99.90;;;;;;4944144;28;20497;-74
2022/06/19 04:33:58;;;;;;;18.80;3.15;;;12.20;99.90;;;;;;4932505;29;20055;-73
2022/06/19 04:36:28;;;;;;;15.02;2.85;;;12.20;99.90;;;;;;4948566;29;20045;-74
2022/06/19 04:38:56;;;;;;;20.07;3.50;;;12.10;99.90;;;;;;4915766;29;20039;-74
2022/06/19 04:41:24;;;;;;;23.35;3.13;;;12.20;99.90;;;;;;4943636;29;20768;-74
2022/06/19 04:43:50;;;;;;;14.73;2.60;;;12.20;99.90;;;;;;4930976;29;20043;-74
2022/06/19 04:46:16;;;;;;;14.85;2.88;;;12.20;99.90;;;;;;4926075;29;20050;-74
2022/06/19 04:48:42;;;;;;;21.15;2.67;;;12.30;99.90;;;;;;4942466;29;20122;-74
2022/06/19 04:51:08;;;;;;;20.20;2.90;;;12.30;99.90;;;;;;4931138;29;20061;-74
2022/06/19 04:53:34;;;;;;;16.52;2.83;;;12.40;99.90;;;;;;4925531;29;20083;-74
2022/06/19 04:56:01;;;;;;;17.90;2.75;;;12.30;99.90;;;;;;4932782;29;20078;-74
2022/06/19 04:58:26;;;;;;;21.45;3.38;;;12.30;99.90;;;;;;4946318;28;20130;-74
2022/06/19 05:00:53;;;;;;;18.60;2.83;;;12.40;99.90;;;;;;4937332;29;20144;-74
2022/06/19 05:03:20;;;;;;;20.63;2.85;;;12.40;99.90;;;;;;4936509;28;20044;-74
2022/06/19 05:05:47;;;;;;;15.55;2.67;;;12.40;99.90;;;;;;4927626;29;20039;-74
2022/06/19 05:08:13;;;;;;;14.23;2.33;;;12.40;99.90;;;;;;4941522;29;20058;-74
2022/06/19 05:10:39;;;;;;;19.63;2.67;;;12.50;99.90;;;;;;4919516;28;20389;-74
2022/06/19 05:13:06;;;;;;;14.43;2.63;;;12.50;99.90;;;;;;4942168;28;20079;-73
2022/06/19 05:15:35;;;;;;;20.55;2.85;;;12.60;99.90;;;;;;4930488;29;20039;-73
2022/06/19 05:18:01;;;;;;;21.13;3.10;;;12.50;99.90;;;;;;4930427;29;20491;-74
2022/06/19 05:20:27;;;;;;;23.42;2.78;;;12.50;99.90;;;;;;4938128;29;20134;-74
2022/06/19 05:22:53;;;;;;;17.73;2.80;;;12.60;99.90;;;;;;4928149;29;20146;-75
2022/06/19 05:25:20;;;;;;;18.02;3.20;;;12.50;99.90;;;;;;4928641;28;20078;-75
2022/06/19 05:27:45;;;;;;;18.30;2.72;;;12.60;99.90;;;;;;4942482;28;20529;-74
2022/06/19 05:30:12;;;;;;;24.73;3.80;;;12.60;99.90;;;;;;4933565;29;20066;-75
2022/06/19 05:32:39;;;;;;;14.45;2.83;;;12.60;99.90;;;;;;4930921;29;20658;-74
2022/06/19 05:35:06;;;;;;;20.95;2.70;;;12.60;99.90;;;;;;4927568;29;20051;-74
2022/06/19 05:37:31;;;;;;;23.58;3.28;;;12.60;99.90;;;;;;4941656;28;20049;-74
2022/06/19 05:39:58;;;;;;;24.45;2.88;;;12.60;99.90;;;;;;4930741;29;20477;-74
2022/06/19 05:42:24;;;;;;;18.35;2.78;;;12.40;99.90;;;;;;4944821;28;20508;-73
2022/06/19 05:44:49;;;;;;;15.95;2.50;;;12.40;99.90;;;;;;4922310;29;20129;-74
2022/06/19 05:47:15;;;;;;;19.13;2.97;;;12.30;99.90;;;;;;4927455;28;20039;-74
2022/06/19 05:49:41;;;;;;;14.77;2.08;;;12.20;99.90;;;;;;4942998;29;20055;-75
2022/06/19 05:52:24;;;;;;;24.00;3.10;;;12.20;99.90;;;;;;4940730;28;20043;-74
2022/06/19 05:54:51;;;;;;;21.15;2.83;;;12.20;99.90;;;;;;4927713;29;20596;-72
2022/06/19 05:57:17;;;;;;;13.95;2.70;;;12.10;99.90;;;;;;4924105;29;20043;-71
2022/06/19 05:59:43;;;;;;;18.80;2.35;;;12.10;99.90;;;;;;4924717;29;20078;-73
2022/06/19 06:02:14;;;;;;;18.75;2.40;;;12.10;99.90;;;;;;4923336;29;20052;-72
2022/06/19 06:04:40;;;;;;;15.85;2.13;;;12.10;99.90;;;;;;4924932;29;20090;-73
2022/06/19 06:07:08;;;;;;;17.65;2.25;;;12.10;99.90;;;;;;4942647;28;20381;-73
2022/06/19 06:09:35;;;;;;;14.32;2.22;;;12.10;99.90;;;;;;4929051;29;20052;-73
2022/06/19 06:12:02;;;;;;;12.35;1.95;;;12.10;99.90;;;;;;4921730;29;20051;-73
2022/06/19 06:14:28;;;;;;;15.82;2.13;;;12.20;99.90;;;;;;4930669;28;20043;-74
2022/06/19 06:16:54;;;;;;;17.10;2.97;;;12.20;99.90;;;;;;4939962;29;20046;-73
2022/06/19 06:19:19;;;;;;;15.80;2.10;;;12.20;99.90;;;;;;4924981;29;20046;-73
2022/06/19 06:21:45;;;;;;;18.52;2.17;;;12.20;99.90;;;;;;4924941;29;20081;-71
2022/06/19 06:24:13;;;;;;;18.77;2.17;;;12.30;99.90;;;;;;4930417;29;20102;-75
2022/06/19 06:26:39;;;;;;;16.15;2.70;;;12.30;99.90;;;;;;4905637;29;20517;-74
2022/06/19 06:29:07;;;;;;;17.75;2.38;;;12.40;99.90;;;;;;4934881;29;20050;-74
2022/06/19 06:31:34;;;;;;;18.65;2.22;;;12.40;99.90;;;;;;4944098;29;20055;-73
2022/06/19 06:33:59;;;;;;;15.20;3.40;;;12.40;99.90;;;;;;4931590;29;20545;-74
2022/06/19 06:36:26;;;;;;;14.93;2.22;;;12.50;99.90;;;;;;4941496;28;20130;-75
2022/06/19 06:38:52;;;;;;;18.33;2.20;;;12.50;99.90;;;;;;4920107;29;20386;-74
2022/06/19 06:41:20;;;;;;;17.15;2.33;;;12.50;99.90;;;;;;4932141;29;20053;-75
2022/06/19 06:43:46;;;;;;;13.77;2.47;;;12.50;99.90;;;;;;4941765;29;20071;-76
2022/06/19 06:46:21;;;;;;;20.00;2.58;;;12.50;99.90;;;;;;4930743;29;20059;-76
2022/06/19 06:48:49;;;;;;;14.63;2.35;;;12.60;99.90;;;;;;4930424;29;20544;-75
2022/06/19 06:51:19;;;;;;;9.75;2.00;;;12.60;99.90;;;;;;4931111;29;20039;-75
2022/06/19 06:53:47;;;;;;;18.58;2.83;;;12.70;99.90;;;;;;4946905;28;20050;-75
2022/06/19 06:56:14;;;;;;;12.75;2.55;;;12.90;99.90;;;;;;4944102;29;20047;-74
2022/06/19 06:58:40;;;;;;;13.75;2.20;;;12.80;99.90;;;;;;4931811;29;20048;-75
2022/06/19 07:01:08;;;;;;;14.23;2.00;;;12.80;99.90;;;;;;4940017;29;20036;-76
2022/06/19 07:03:33;;;;;;;14.57;1.95;;;12.80;99.90;;;;;;4927946;29;20091;-74
2022/06/19 07:05:59;;;;;;;14.27;2.25;;;12.90;99.90;;;;;;4949078;28;20386;-74
2022/06/19 07:08:25;;;;;;;15.77;2.10;;;12.90;99.90;;;;;;4928033;29;20079;-74
2022/06/19 07:10:50;;;;;;;19.48;2.40;;;12.90;99.90;;;;;;4940384;29;20051;-75
2022/06/19 07:13:16;;;;;;;13.18;2.10;;;12.90;99.90;;;;;;4933511;29;20047;-74
2022/06/19 07:15:42;;;;;;;13.35;2.55;;;12.90;99.90;;;;;;4926505;29;20067;-76
2022/06/19 07:18:07;;;;;;;13.23;2.00;;;12.90;99.90;;;;;;4942879;28;20043;-76
2022/06/19 07:20:33;;;;;;;18.92;2.70;;;13.00;99.90;;;;;;4946678;28;20098;-74
2022/06/19 07:22:59;;;;;;;11.43;1.92;;;13.00;99.90;;;;;;4928245;29;20130;-74
2022/06/19 07:25:24;;;;;;;18.90;2.25;;;13.10;99.90;;;;;;4922551;29;20058;-75
2022/06/19 07:27:50;;;;;;;20.90;2.30;;;13.20;99.90;;;;;;4914401;29;20074;-75
2022/06/19 07:30:22;;;;;;;9.95;1.75;;;13.30;99.90;;;;;;4931090;29;20054;-75
2022/06/19 07:32:48;;;;;;;13.23;2.38;;;13.30;99.90;;;;;;4926330;29;20039;-75
2022/06/19 07:35:14;;;;;;;18.45;2.17;;;13.40;99.90;;;;;;4930764;29;20042;-76
2022/06/19 07:37:40;;;;;;;10.50;2.22;;;13.40;99.90;;;;;;4932245;29;20047;-74
2022/06/19 07:40:07;;;;;;;14.02;2.03;;;13.40;99.90;;;;;;4920956;29;20067;-74
2022/06/19 07:42:32;;;;;;;12.48;1.80;;;13.40;99.90;;;;;;4946439;29;20130;-75
2022/06/19 07:44:58;;;;;;;15.35;2.15;;;13.40;99.90;;;;;;4925991;29;20570;-75
2022/06/19 07:50:17;;;;;;;10.40;1.80;;;13.50;99.90;;;;;;4946525;29;20479;-75
2022/06/19 07:52:47;;;;;;;15.30;2.33;;;13.50;99.90;;;;;;4932463;28;20508;-75
2022/06/19 07:55:21;;;;;;;10.50;1.83;;;13.50;99.90;;;;;;4938922;29;20472;-75
2022/06/19 07:57:47;;;;;;;18.27;2.17;;;13.40;99.90;;;;;;4934565;28;21625;-76
2022/06/19 08:00:19;;;;;;;14.68;1.92;;;13.50;99.90;;;;;;4934596;29;20082;-76
2022/06/19 08:02:47;;;;;;;18.23;2.30;;;13.50;99.90;;;;;;4928324;29;20504;-76
2022/06/19 08:05:13;;;;;;;12.18;3.15;;;13.60;99.90;;;;;;4925297;29;20051;-76
2022/06/19 08:07:42;;;;;;;12.45;1.80;;;13.50;99.90;;;;;;4924933;29;20090;-76
2022/06/19 08:10:13;;;;;;;12.35;1.63;;;13.50;99.90;;;;;;4921736;29;20082;-76
2022/06/19 08:12:39;;;;;;;17.38;2.03;;;13.40;99.90;;;;;;4924668;29;20055;-76
2022/06/19 08:15:07;;;;;;;11.60;2.03;;;13.40;99.90;;;;;;4920177;29;20074;-76
2022/06/19 08:17:33;;;;;;;14.43;2.65;;;13.40;99.90;;;;;;4928288;29;20786;-76
2022/06/19 08:19:59;;;;;;;16.35;2.28;;;13.40;99.90;;;;;;4907759;29;20609;-75
2022/06/19 08:22:25;;;;;;;13.13;2.08;;;13.50;99.90;;;;;;4943689;28;20047;-76
2022/06/19 08:24:50;;;;;;;11.10;2.53;;;13.60;99.90;;;;;;4924143;29;20058;-77
2022/06/19 08:27:16;;;;;;;11.52;1.90;;;13.60;99.90;;;;;;4909320;29;20122;-78
2022/06/19 08:29:42;;;;;;;10.32;1.60;;;13.70;99.90;;;;;;4947927;28;20055;-77
2022/06/19 08:32:08;;;;;;;17.55;2.80;;;13.80;99.90;;;;;;4920974;29;20386;-77
2022/06/19 08:34:33;;;;;;;10.65;1.83;;;13.80;99.90;;;;;;4944191;29;20047;-78
2022/06/19 08:37:03;;;;;;;13.13;1.88;;;13.90;99.90;;;;;;4941948;29;20102;-78
2022/06/19 08:39:30;;;;;;;11.00;1.70;;;13.90;99.90;;;;;;4925766;29;20047;-78
2022/06/19 08:42:14;;;;;;;12.85;2.35;;;14.00;99.90;;;;;;4914752;29;20051;-78
2022/06/19 08:45:02;;;;;;;14.98;1.70;;;13.90;99.90;;;;;;4940396;28;20514;-78
2022/06/19 08:47:55;;;;;;;11.60;1.85;;;14.00;99.90;;;;;;4925476;29;20098;-76
2022/06/19 08:50:36;;;;;;;7.45;1.67;;;14.10;99.90;;;;;;4943851;28;20316;-76
2022/06/19 08:53:28;;;;;;;16.58;2.10;;;14.10;99.90;;;;;;4911040;29;20289;-76
2022/06/19 08:56:04;;;;;;;13.32;2.33;;;14.10;99.90;;;;;;4879661;29;20051;-77
2022/06/19 08:58:54;;;;;;;9.65;1.65;;;14.20;99.90;;;;;;4947092;28;20082;-76
2022/06/19 09:01:49;;;;;;;9.07;1.70;;;14.30;99.90;;;;;;4943684;28;20051;-75
2022/06/19 09:07:32;;;;;;;12.60;1.92;;;14.10;99.90;;;;;;4940126;28;20101;-77
2022/06/19 09:10:38;;;;;;;12.15;1.88;;;14.10;99.90;;;;;;4949760;28;20046;-76
2022/06/19 09:13:12;;;;;;;10.55;1.73;;;14.10;99.90;;;;;;4949411;28;20133;-75
2022/06/19 09:15:43;;;;;;;9.27;2.05;;;14.20;99.90;;;;;;4925438;29;20477;-74
2022/06/19 09:18:35;;;;;;;7.93;1.58;;;14.30;99.90;;;;;;4942452;28;20043;-74
2022/06/19 09:21:27;;;;;;;6.75;1.33;;;14.40;99.90;;;;;;4927734;29;20106;-75
2022/06/19 09:24:15;;;;;;;;;;;14.50;99.90;;;;;;4946731;29;20413;-74
2022/06/19 09:26:53;;;;;;;6.82;1.25;;;14.60;99.90;;;;;;4928257;29;20335;-74
2022/06/19 09:29:21;;;;;;;12.73;1.30;;;14.70;99.90;;;;;;4929195;29;20127;-75
2022/06/19 09:32:22;;;;;;;8.70;1.38;;;14.80;99.90;;;;;;4930227;29;20071;-75
2022/06/19 09:35:00;;;;;;;9.27;1.57;;;14.90;99.90;;;;;;4922545;29;20106;-74
2022/06/19 09:37:48;;;;;;;7.93;1.88;;;14.90;99.90;;;;;;4925275;29;20770;-74
2022/06/19 09:40:26;;;;;;;8.18;1.67;;;14.90;99.90;;;;;;4924174;29;20122;-73
2022/06/19 09:43:11;;;;;;;7.28;1.70;;;14.90;99.90;;;;;;4948244;28;20040;-74
2022/06/19 09:45:47;;;;;;;7.57;1.67;;;14.90;99.90;;;;;;4943681;29;20047;-75
2022/06/19 09:48:31;;;;;;;6.53;1.17;;;14.90;99.90;;;;;;4941263;28;20055;-74
2022/06/19 09:51:12;;;;;;;9.10;1.38;;;14.90;99.90;;;;;;4937157;28;20055;-73
2022/06/19 09:53:45;;;;;;;10.90;1.60;;;14.90;99.90;;;;;;4936688;29;20724;-73
2022/06/19 09:56:29;;;;;;;7.43;1.40;;;15.10;99.90;;;;;;4913993;28;20727;-73
2022/06/19 09:58:58;;;;;;;9.90;1.58;;;15.10;99.90;;;;;;4935322;28;20647;-73
2022/06/19 10:01:24;;;;;;;8.48;1.60;;;15.20;99.90;;;;;;4918162;29;20738;-73
2022/06/19 10:03:59;;;;;;;8.55;1.30;;;15.20;99.90;;;;;;4936507;28;20063;-73
2022/06/19 10:06:41;;;;;;;5.75;1.25;;;15.20;99.90;;;;;;4939051;29;20031;-72
2022/06/19 10:09:30;;;;;;;9.85;1.30;;;15.30;99.90;;;;;;4922644;29;20043;-72
2022/06/19 10:12:04;;;;;;;8.13;1.17;;;15.30;99.90;;;;;;4921576;29;20481;-73
2022/06/19 10:14:43;;;;;;;7.75;1.33;;;15.40;99.90;;;;;;4918931;29;20468;-73
2022/06/19 10:17:21;;;;;;;7.68;1.30;;;15.60;99.90;;;;;;4936533;28;21722;-72
2022/06/19 10:20:16;;;;;;;8.77;1.35;;;15.80;99.90;;;;;;4922651;29;20035;-72
2022/06/19 10:22:51;;;;;;;7.07;1.33;;;15.90;99.90;;;;;;4918862;29;20133;-72
2022/06/19 10:25:54;;;;;;;8.90;1.45;;;16.00;99.90;;;;;;4936653;28;20519;-73
2022/06/19 10:28:42;;;;;;;10.02;1.95;;;15.90;99.90;;;;;;4933520;28;20066;-73
2022/06/19 10:31:25;;;;;;;6.72;1.48;;;15.90;99.90;;;;;;4920181;29;20393;-72
2022/06/19 10:34:14;;;;;;;8.52;1.33;;;16.00;99.90;;;;;;4920370;29;20082;-73
2022/06/19 10:37:10;;;;;;;5.63;1.13;;;16.10;99.90;;;;;;4916098;29;20051;-73
2022/06/19 10:39:56;;;;;;;6.25;1.20;;;16.40;99.90;;;;;;4909212;29;20055;-73
2022/06/19 10:42:31;;;;;;;10.77;1.50;;;16.60;99.90;;;;;;4936166;28;20051;-72
2022/06/19 10:45:02;;;;;;;4.63;1.20;;;17.00;99.90;;;;;;4919668;29;20094;-73
2022/06/19 10:48:01;;;;;;;6.32;1.33;;;17.30;99.90;;;;;;4917461;29;20051;-73
2022/06/19 10:51:04;;;;;;;5.18;1.15;;;17.40;99.90;;;;;;4913857;29;20063;-72
2022/06/19 10:53:33;;;;;;;4.15;0.95;;;17.30;99.90;;;;;;4923739;29;20612;-72
2022/06/19 10:56:28;;;;;;;6.28;0.90;;;17.10;99.90;;;;;;4938275;28;20074;-72
2022/06/19 10:58:55;;;;;;;4.57;0.90;;;17.00;99.90;;;;;;4934352;28;20093;-72
2022/06/19 11:04:16;;;;;;;4.40;0.93;;;17.00;99.90;;;;;;4943864;29;20109;-71
2022/06/19 11:07:05;;;;;;;2.10;0.80;;;17.00;99.90;;;;;;4943390;28;20046;-71
2022/06/19 11:09:40;;;;;;;5.20;1.00;;;17.00;99.90;;;;;;4933524;29;20043;-69
2022/06/19 11:12:21;;;;;;;5.88;1.10;;;16.90;99.90;;;;;;4930939;29;20043;-71
2022/06/19 11:14:55;;;;;;;5.45;1.10;;;16.70;99.90;;;;;;4939580;28;20051;-71
2022/06/19 11:17:42;;;;;;;5.13;1.13;;;16.50;99.90;;;;;;4924480;29;20106;-72
2022/06/19 11:20:30;;;;;;;5.00;1.00;;;16.40;99.90;;;;;;4947574;28;20348;-70
2022/06/19 11:23:05;;;;;;;5.20;0.90;;;16.30;99.90;;;;;;4941087;29;20513;-71
2022/06/19 11:25:39;;;;;;;3.72;0.80;;;16.10;99.90;;;;;;4935182;29;20051;-70
2022/06/19 11:28:13;;;;;;;5.25;1.08;;;16.00;99.90;;;;;;4940742;28;20058;-70
2022/06/19 11:30:44;;;;;;;10.40;1.50;;;15.90;99.90;;;;;;4921519;29;20052;-70
2022/06/19 11:33:18;;;;;;;8.50;1.10;;;15.80;99.90;;;;;;4922534;29;20051;-70
2022/06/19 11:35:56;;;;;;;2.63;0.93;;;15.70;99.90;;;;;;4922149;29;20056;-70
2022/06/19 11:38:38;;;;;;;4.50;0.98;;;15.70;99.90;;;;;;4922143;29;20079;-70
2022/06/19 11:41:18;;;;;;;5.03;1.20;;;15.60;99.90;;;;;;4923568;29;20050;-71
2022/06/19 11:43:44;;;;;;;8.80;1.15;;;15.60;99.90;;;;;;4922443;29;20086;-70
2022/06/19 11:46:19;;;;;;;7.47;1.50;;;15.50;99.90;;;;;;4909950;29;20711;-70
2022/06/19 11:48:45;;;;;;;9.90;1.83;;;15.50;99.90;;;;;;4924561;29;20510;-70
2022/06/19 11:51:20;;;;;;;7.07;1.38;;;15.50;99.90;;;;;;4924662;29;20054;-71
2022/06/19 11:53:53;;;;;;;6.65;1.23;;;15.50;99.90;;;;;;4923008;29;20040;-70
2022/06/19 11:56:35;;;;;;;6.15;1.30;;;15.50;99.90;;;;;;4925156;29;20524;-71
2022/06/19 11:59:19;;;;;;;11.52;2.20;;;15.50;99.90;;;;;;4920266;29;20139;-70
2022/06/19 12:01:46;;;;;;;7.95;1.30;;;15.40;99.90;;;;;;4924847;29;20039;-70
2022/06/19 12:04:25;;;;;;;7.70;1.33;;;15.40;99.90;;;;;;4907351;29;20599;-70
2022/06/19 12:06:54;;;;;;;10.20;1.67;;;15.40;99.90;;;;;;4928207;29;20055;-71
2022/06/19 12:09:42;;;;;;;11.05;1.83;;;15.50;99.90;;;;;;4923843;29;20157;-70
2022/06/19 12:12:11;;;;;;;7.97;1.52;;;15.40;99.90;;;;;;4912740;29;20059;-70
2022/06/19 12:14:55;;;;;;;5.68;1.08;;;15.40;99.90;;;;;;4916996;29;20048;-71
2022/06/19 12:17:27;;;;;;;10.77;1.80;;;15.50;99.90;;;;;;4922496;29;20051;-70
2022/06/19 12:19:57;;;;;;;9.93;1.77;;;15.50;99.90;;;;;;4944334;28;20052;-70
2022/06/19 12:22:39;;;;;;;8.57;1.43;;;15.60;99.90;;;;;;4925595;29;20047;-71
2022/06/19 12:25:28;;;;;;;9.13;1.52;;;15.80;99.90;;;;;;4931435;29;20296;-71
2022/06/19 12:28:26;;;;;;;10.65;1.52;;;16.00;99.90;;;;;;4927211;29;20158;-71
2022/06/19 12:30:54;;;;;;;7.25;1.40;;;16.40;99.90;;;;;;4947969;29;20054;-70
2022/06/19 12:33:45;;;;;;;8.23;1.50;;;16.70;99.90;;;;;;4955953;29;20170;-70
2022/06/19 12:36:16;;;;;;;7.30;1.60;;;17.20;99.90;;;;;;4938045;29;20051;-71
2022/06/19 12:38:43;;;;;;;7.30;1.30;;;17.70;99.90;;;;;;4917418;29;20063;-71
2022/06/19 12:41:18;;;;;;;10.63;1.90;;;18.00;99.90;;;;;;4936794;29;20043;-71
2022/06/19 12:43:55;;;;;;;5.00;1.20;;;18.30;99.90;;;;;;4926490;29;20055;-71
2022/06/19 12:46:26;;;;;;;7.03;1.70;;;18.40;99.90;;;;;;4921050;29;20051;-70
2022/06/19 12:49:15;;;;;;;;;;;18.50;99.90;;;;;;4919519;29;20078;-72
2022/06/19 12:51:54;;;;;;;6.50;1.20;;;18.50;99.90;;;;;;4939619;29;20037;-71
2022/06/19 12:54:31;;;;;;;7.40;2.08;;;18.50;99.90;;;;;;4926101;29;20122;-71
2022/06/19 12:57:21;;;;;;;6.63;1.30;;;18.50;99.90;;;;;;4941209;28;20050;-71
2022/06/19 13:00:02;;;;;;;6.25;1.17;;;18.30;99.90;;;;;;4936110;29;20142;-71
2022/06/19 13:02:54;;;;;;;6.82;1.30;;;18.20;99.90;;;;;;4934743;29;20050;-71
2022/06/19 13:05:45;;;;;;;8.10;1.30;;;18.10;99.90;;;;;;4927838;28;20063;-71
2022/06/19 13:08:38;;;;;;;6.55;1.10;;;18.00;99.90;;;;;;4913255;29;20761;-70
2022/06/19 13:11:32;;;;;;;7.20;1.55;;;17.90;99.90;;;;;;4902250;29;20063;-70
2022/06/19 13:14:37;;;;;;;6.35;1.25;;;17.90;99.90;;;;;;4930717;29;20055;-70
2022/06/19 13:17:29;;;;;;;10.77;1.60;;;17.90;99.90;;;;;;4912116;29;20058;-71